Time;durP1;ratioP1;P1;durP2;ratioP2;P2;SDS_P1;SDS_P2;PMS_P1;PMS_P2;Temp;Humidity;BMP_temperature;BMP_pressure;BME280_temperature;BME280_humidity;BME280_pressure;Samples;Min_cycle;Max_cycle;Signal;HPM_P1;HPM_P2
2024/03/17 00:02:21;;;;;;;11.95;7.18;;;6.90;99.90;;;;;;5038341;28;20032;-94
2024/03/17 00:04:46;;;;;;;12.00;8.07;;;7.00;99.90;;;;;;5033963;28;20036;-92
2024/03/17 00:07:13;;;;;;;14.30;8.13;;;6.90;99.90;;;;;;5038650;28;20025;-94
2024/03/17 00:09:39;;;;;;;14.27;7.20;;;7.00;99.90;;;;;;5028101;28;20037;-91
2024/03/17 00:12:05;;;;;;;10.48;6.97;;;7.10;99.90;;;;;;5018841;28;20090;-93
2024/03/17 00:14:31;;;;;;;10.98;7.32;;;7.10;99.90;;;;;;5018507;28;20041;-94
2024/03/17 00:16:57;;;;;;;8.38;5.45;;;7.10;99.90;;;;;;5031331;28;20025;-93
2024/03/17 00:19:24;;;;;;;10.50;6.05;;;6.90;99.90;;;;;;5035934;28;20036;-92
2024/03/17 00:21:53;;;;;;;39.17;16.25;;;6.70;99.90;;;;;;5040642;28;20322;-93
2024/03/17 00:24:19;;;;;;;26.70;12.07;;;6.60;99.90;;;;;;5042129;28;20029;-93
2024/03/17 00:26:45;;;;;;;14.60;6.78;;;6.60;99.90;;;;;;5033321;28;20052;-93
2024/03/17 00:29:11;;;;;;;15.73;6.43;;;6.60;99.90;;;;;;5040801;28;20099;-92
2024/03/17 00:31:37;;;;;;;10.65;5.88;;;6.60;99.90;;;;;;5040351;28;20029;-94
2024/03/17 00:34:04;;;;;;;10.98;5.75;;;6.70;99.90;;;;;;5034927;28;20033;-93
2024/03/17 00:36:30;;;;;;;9.00;6.15;;;6.70;99.90;;;;;;5041055;28;20515;-93
2024/03/17 00:38:56;;;;;;;9.80;5.65;;;6.70;99.90;;;;;;5041109;28;20034;-93
2024/03/17 00:41:23;;;;;;;7.88;5.68;;;6.50;99.90;;;;;;5040704;28;20472;-94
2024/03/17 00:43:49;;;;;;;9.70;6.30;;;6.50;99.90;;;;;;5038714;28;20029;-92
2024/03/17 00:46:15;;;;;;;9.30;5.65;;;6.40;99.90;;;;;;5036589;28;20021;-93
2024/03/17 00:48:41;;;;;;;7.63;5.32;;;6.40;99.90;;;;;;5041200;28;20510;-93
2024/03/17 00:51:07;;;;;;;10.32;5.70;;;6.50;99.90;;;;;;5041827;28;20034;-92
2024/03/17 00:53:32;;;;;;;8.13;4.88;;;6.50;99.90;;;;;;5045838;28;20056;-93
2024/03/17 00:55:58;;;;;;;8.23;5.47;;;6.50;99.90;;;;;;5032813;28;20017;-93
2024/03/17 00:58:24;;;;;;;11.30;6.55;;;6.50;99.90;;;;;;5024376;28;20037;-93
2024/03/17 01:00:50;;;;;;;8.90;6.20;;;6.50;99.90;;;;;;5040611;28;20017;-94
2024/03/17 01:03:19;;;;;;;7.75;5.72;;;6.40;99.90;;;;;;5041369;28;20022;-93
2024/03/17 01:05:47;;;;;;;7.78;5.43;;;6.40;99.90;;;;;;5039638;28;20052;-93
2024/03/17 01:08:18;;;;;;;11.50;5.65;;;6.40;99.90;;;;;;5038756;28;20026;-93
2024/03/17 01:10:45;;;;;;;8.40;5.53;;;6.40;99.90;;;;;;5041194;28;20026;-93
2024/03/17 01:13:11;;;;;;;6.97;5.32;;;6.40;99.90;;;;;;5038662;28;20329;-96
2024/03/17 01:15:38;;;;;;;7.75;5.60;;;6.40;99.90;;;;;;5039349;28;20021;-94
2024/03/17 01:18:05;;;;;;;8.18;6.75;;;6.40;99.90;;;;;;5040958;28;20487;-93
2024/03/17 01:20:32;;;;;;;8.52;5.47;;;6.40;99.90;;;;;;5039158;28;20033;-93
2024/03/17 01:22:58;;;;;;;7.07;5.60;;;6.40;99.90;;;;;;5041471;28;20026;-95
2024/03/17 01:25:25;;;;;;;9.10;5.15;;;6.30;99.90;;;;;;5041984;28;20022;-94
2024/03/17 01:27:55;;;;;;;8.57;6.45;;;6.20;99.90;;;;;;5039789;28;20061;-93
2024/03/17 01:30:21;;;;;;;7.72;5.68;;;6.20;99.90;;;;;;5040149;28;20036;-94
2024/03/17 01:32:46;;;;;;;6.40;5.15;;;6.20;99.90;;;;;;5031782;28;20030;-95
2024/03/17 01:35:12;;;;;;;7.45;5.38;;;6.20;99.90;;;;;;5039147;28;20029;-93
2024/03/17 01:37:39;;;;;;;6.70;5.93;;;6.20;99.90;;;;;;5030748;28;20036;-92
2024/03/17 01:40:12;;;;;;;7.20;6.00;;;6.20;99.90;;;;;;5032688;28;20021;-93
2024/03/17 01:42:41;;;;;;;8.70;5.90;;;6.20;99.90;;;;;;5030823;28;20029;-94
2024/03/17 01:45:31;;;;;;;8.98;6.07;;;6.30;99.90;;;;;;5020902;28;20049;-94
2024/03/17 01:47:59;;;;;;;8.00;5.70;;;6.20;99.90;;;;;;5027464;28;20041;-93
2024/03/17 01:50:36;;;;;;;9.63;5.53;;;6.20;99.90;;;;;;5020999;28;20490;-94
2024/03/17 01:53:04;;;;;;;8.00;6.30;;;6.20;99.90;;;;;;5035119;28;20026;-92
2024/03/17 01:55:36;;;;;;;8.43;6.13;;;6.20;99.90;;;;;;5039429;28;20611;-94
2024/03/17 01:58:03;;;;;;;7.22;5.28;;;6.10;99.90;;;;;;5037360;28;20036;-94
2024/03/17 02:00:31;;;;;;;7.65;6.63;;;6.00;99.90;;;;;;5040450;28;20049;-93
2024/03/17 02:02:57;;;;;;;9.82;5.85;;;5.90;99.90;;;;;;5039928;28;20028;-94
2024/03/17 02:05:22;;;;;;;8.05;5.60;;;5.90;99.90;;;;;;5039431;28;20026;-93
2024/03/17 02:07:48;;;;;;;6.80;5.13;;;5.90;99.90;;;;;;5038644;28;20025;-93
2024/03/17 02:10:15;;;;;;;9.95;6.20;;;5.90;99.90;;;;;;5040297;28;20056;-93
2024/03/17 02:12:41;;;;;;;10.38;6.38;;;5.90;99.90;;;;;;5039080;28;20029;-92
2024/03/17 02:15:07;;;;;;;9.20;5.47;;;5.90;99.90;;;;;;5039546;28;20028;-94
2024/03/17 02:17:33;;;;;;;7.88;5.82;;;5.90;99.90;;;;;;5038968;28;20021;-93
2024/03/17 02:19:59;;;;;;;6.53;5.80;;;6.00;99.90;;;;;;5027619;28;20022;-93
2024/03/17 02:22:27;;;;;;;7.85;5.28;;;6.00;99.90;;;;;;5034184;28;20026;-95
2024/03/17 02:24:53;;;;;;;;;;;5.90;99.90;;;;;;5031152;28;20085;-93
2024/03/17 02:27:19;;;;;;;10.10;5.22;;;6.00;99.90;;;;;;5038710;28;19940;-94
2024/03/17 02:29:45;;;;;;;7.72;5.22;;;6.00;99.90;;;;;;5039489;28;20029;-93
2024/03/17 02:32:11;;;;;;;5.65;4.60;;;6.00;99.90;;;;;;5039190;28;20048;-94
2024/03/17 02:34:38;;;;;;;8.48;5.22;;;6.00;99.90;;;;;;5038265;28;20037;-93
2024/03/17 02:37:06;;;;;;;9.35;5.07;;;5.90;99.90;;;;;;5029942;28;20063;-92
2024/03/17 02:39:35;;;;;;;;;;;5.80;99.90;;;;;;5038265;28;20045;-94
2024/03/17 02:42:06;;;;;;;8.00;4.40;;;5.80;99.90;;;;;;5039336;28;19905;-94
2024/03/17 02:44:33;;;;;;;5.95;4.57;;;5.70;99.90;;;;;;5039048;28;20034;-94
2024/03/17 02:47:00;;;;;;;19.63;4.43;;;5.80;99.90;;;;;;5039185;28;20022;-93
2024/03/17 02:49:37;;;;;;;5.75;4.57;;;5.70;99.90;;;;;;5031892;28;20032;-93
2024/03/17 02:52:10;;;;;;;6.18;5.05;;;5.60;99.90;;;;;;5039233;28;20033;-93
2024/03/17 02:54:36;;;;;;;7.07;4.88;;;5.60;99.90;;;;;;5039111;28;20080;-92
2024/03/17 02:57:06;;;;;;;6.10;4.65;;;5.60;99.90;;;;;;5028056;28;20037;-92
2024/03/17 02:59:32;;;;;;;8.57;5.18;;;5.70;99.90;;;;;;5018434;28;20053;-94
2024/03/17 03:01:59;;;;;;;6.07;4.50;;;5.70;99.90;;;;;;5030947;28;20508;-93
2024/03/17 03:04:25;;;;;;;11.52;5.22;;;5.70;99.90;;;;;;5040939;28;20033;-95
2024/03/17 03:06:51;;;;;;;7.95;6.15;;;5.70;99.90;;;;;;5052064;28;20026;-93
2024/03/17 03:09:25;;;;;;;8.90;6.22;;;5.70;99.90;;;;;;5044698;28;20085;-93
2024/03/17 03:11:51;;;;;;;10.52;6.05;;;5.60;99.90;;;;;;5039000;28;20017;-93
2024/03/17 03:14:17;;;;;;;6.63;6.00;;;5.60;99.90;;;;;;5038385;28;20026;-93
2024/03/17 03:16:43;;;;;;;9.57;6.60;;;5.60;99.90;;;;;;5039135;28;20053;-94
2024/03/17 03:19:09;;;;;;;9.73;6.22;;;5.60;99.90;;;;;;5043049;28;20021;-93
2024/03/17 03:21:35;;;;;;;7.40;5.05;;;5.70;99.90;;;;;;5033447;28;20032;-94
2024/03/17 03:24:01;;;;;;;10.75;5.45;;;5.60;99.90;;;;;;5035481;28;20049;-93
2024/03/17 03:26:28;;;;;;;6.80;4.93;;;5.60;99.90;;;;;;5042498;28;20029;-94
2024/03/17 03:28:55;;;;;;;9.20;5.57;;;5.50;99.90;;;;;;5042212;28;20037;-93
2024/03/17 03:31:21;;;;;;;7.60;4.97;;;5.50;99.90;;;;;;5027669;28;20025;-93
2024/03/17 03:33:47;;;;;;;7.70;5.40;;;5.50;99.90;;;;;;5032668;28;20022;-93
2024/03/17 03:36:15;;;;;;;10.23;6.15;;;5.50;99.90;;;;;;5041460;28;20026;-93
2024/03/17 03:38:41;;;;;;;8.05;4.88;;;5.50;99.90;;;;;;5033081;28;20040;-93
2024/03/17 03:41:11;;;;;;;8.00;4.75;;;5.50;99.90;;;;;;5040751;28;20088;-93
2024/03/17 03:43:37;;;;;;;7.70;4.68;;;5.50;99.90;;;;;;5040866;28;20024;-94
2024/03/17 03:46:03;;;;;;;6.88;4.70;;;5.40;99.90;;;;;;5036655;28;20041;-94
2024/03/17 03:48:29;;;;;;;9.07;6.40;;;5.50;99.90;;;;;;5038576;28;20021;-93
2024/03/17 03:50:55;;;;;;;6.93;4.93;;;5.40;99.90;;;;;;5029929;28;20060;-94
2024/03/17 03:53:22;;;;;;;7.82;5.38;;;5.50;99.90;;;;;;5035336;28;20103;-93
2024/03/17 03:55:48;;;;;;;7.57;4.85;;;5.50;99.90;;;;;;5039759;28;20026;-92
2024/03/17 03:58:14;;;;;;;6.00;5.00;;;5.40;99.90;;;;;;5041600;28;20033;-94
2024/03/17 04:00:43;;;;;;;6.13;5.38;;;5.30;99.90;;;;;;5040896;28;20032;-93
2024/03/17 04:03:08;;;;;;;8.85;5.25;;;5.30;99.90;;;;;;5025170;28;20032;-94
2024/03/17 04:05:34;;;;;;;7.13;5.03;;;5.30;99.90;;;;;;5041823;28;20018;-93
2024/03/17 04:08:00;;;;;;;8.80;5.35;;;5.30;99.90;;;;;;5042365;28;20085;-93
2024/03/17 04:10:26;;;;;;;7.78;5.18;;;5.30;99.90;;;;;;5042103;28;20055;-93
2024/03/17 04:12:52;;;;;;;8.13;5.93;;;5.30;99.90;;;;;;5040943;28;20586;-92
2024/03/17 04:15:19;;;;;;;11.00;5.43;;;5.30;99.90;;;;;;5027537;28;20109;-93
2024/03/17 04:17:44;;;;;;;11.50;6.78;;;5.20;99.90;;;;;;5045701;28;20025;-94
2024/03/17 04:20:13;;;;;;;9.25;6.15;;;5.20;99.90;;;;;;5034555;28;20018;-93
2024/03/17 04:22:39;;;;;;;8.80;5.95;;;5.20;99.90;;;;;;5041652;28;20033;-94
2024/03/17 04:25:05;;;;;;;17.70;6.97;;;5.10;99.90;;;;;;5042321;28;20021;-92
2024/03/17 04:27:31;;;;;;;11.00;5.47;;;5.10;99.90;;;;;;5042391;28;20049;-93
2024/03/17 04:30:00;;;;;;;10.55;6.28;;;5.20;99.90;;;;;;5029832;28;20040;-94
2024/03/17 04:32:30;;;;;;;8.35;5.72;;;5.20;99.90;;;;;;5037010;28;20488;-92
2024/03/17 04:34:56;;;;;;;9.20;5.85;;;5.20;99.90;;;;;;5040967;28;20022;-93
2024/03/17 04:37:22;;;;;;;9.32;5.97;;;5.10;99.90;;;;;;5042092;28;20483;-94
2024/03/17 04:39:48;;;;;;;14.32;7.05;;;5.20;99.90;;;;;;5041543;28;20093;-94
2024/03/17 04:42:16;;;;;;;11.18;6.82;;;5.20;99.90;;;;;;5041131;28;20026;-94
2024/03/17 04:44:42;;;;;;;;;;;5.20;99.90;;;;;;5042640;28;20056;-93
2024/03/17 04:47:09;;;;;;;7.90;5.53;;;5.20;99.90;;;;;;5041334;28;19972;-93
2024/03/17 04:49:36;;;;;;;10.45;5.90;;;5.10;99.90;;;;;;5030859;28;20029;-93
2024/03/17 04:52:02;;;;;;;7.13;5.18;;;4.90;99.90;;;;;;5030069;28;20030;-93
2024/03/17 04:54:28;;;;;;;11.00;5.65;;;4.90;99.90;;;;;;5036454;28;20052;-94
2024/03/17 04:56:54;;;;;;;7.65;5.50;;;4.90;99.90;;;;;;5030079;28;20022;-94
2024/03/17 04:59:19;;;;;;;9.02;6.22;;;4.80;99.90;;;;;;5025565;28;20022;-95
2024/03/17 05:01:45;;;;;;;8.50;5.45;;;4.70;99.90;;;;;;5050521;28;20018;-96
2024/03/17 05:04:11;;;;;;;7.60;5.53;;;4.70;99.90;;;;;;5058368;28;20057;-94
2024/03/17 05:06:36;;;;;;;8.15;5.43;;;4.70;99.90;;;;;;5058569;28;20069;-96
2024/03/17 05:09:04;;;;;;;12.10;6.82;;;4.70;99.90;;;;;;5057419;28;20010;-93
2024/03/17 05:11:31;;;;;;;9.68;5.97;;;4.60;99.90;;;;;;5058324;28;20021;-94
2024/03/17 05:13:56;;;;;;;8.60;5.75;;;4.60;99.90;;;;;;5057429;28;20018;-95
2024/03/17 05:16:23;;;;;;;12.75;6.05;;;4.60;99.90;;;;;;5047932;28;20072;-92
2024/03/17 05:18:49;;;;;;;12.50;5.45;;;4.50;99.90;;;;;;5024827;28;20022;-92
2024/03/17 05:21:15;;;;;;;7.32;5.38;;;4.50;99.90;;;;;;5040939;28;20040;-94
2024/03/17 05:23:41;;;;;;;9.98;6.47;;;4.60;99.90;;;;;;5040508;28;20372;-93
2024/03/17 05:26:06;;;;;;;11.27;6.85;;;4.60;99.90;;;;;;5039081;28;20022;-93
2024/03/17 05:28:32;;;;;;;12.45;7.03;;;4.60;99.90;;;;;;5023723;28;20459;-92
2024/03/17 05:30:59;;;;;;;10.90;7.15;;;4.60;99.90;;;;;;5031608;28;20480;-93
2024/03/17 05:33:26;;;;;;;12.40;7.80;;;4.50;99.90;;;;;;5039980;28;20018;-93
2024/03/17 05:35:56;;;;;;;12.73;7.38;;;4.60;99.90;;;;;;5038521;28;20025;-94
2024/03/17 05:38:24;;;;;;;12.43;7.65;;;4.60;99.90;;;;;;5033460;28;20034;-93
2024/03/17 05:40:57;;;;;;;15.82;9.48;;;4.60;99.90;;;;;;5038167;28;20025;-93
2024/03/17 05:43:24;;;;;;;11.77;7.25;;;4.70;99.90;;;;;;5039996;28;20064;-94
2024/03/17 05:45:54;;;;;;;10.07;7.32;;;4.60;99.90;;;;;;5039072;28;20116;-93
2024/03/17 05:48:20;;;;;;;10.38;7.65;;;4.60;99.90;;;;;;5039963;28;20053;-94
2024/03/17 05:50:47;;;;;;;11.00;6.60;;;4.60;99.90;;;;;;5038702;28;20056;-92
2024/03/17 05:53:12;;;;;;;9.57;7.25;;;4.60;99.90;;;;;;5038134;28;20033;-93
2024/03/17 05:55:40;;;;;;;10.73;6.75;;;4.60;99.90;;;;;;5030521;28;20598;-94
2024/03/17 05:58:08;;;;;;;11.27;7.32;;;4.60;99.90;;;;;;5039959;28;20029;-94
2024/03/17 06:00:38;;;;;;;13.18;6.60;;;4.60;99.90;;;;;;5039263;28;20028;-93
2024/03/17 06:03:05;;;;;;;10.32;7.25;;;4.50;99.90;;;;;;5019435;28;20095;-93
2024/03/17 06:05:40;;;;;;;13.68;6.93;;;4.50;99.90;;;;;;5035233;28;20045;-94
2024/03/17 06:08:08;;;;;;;20.02;6.63;;;4.50;99.90;;;;;;5038795;28;20048;-93
2024/03/17 06:10:35;;;;;;;10.10;6.47;;;4.50;99.90;;;;;;5038672;28;20021;-93
2024/03/17 06:13:04;;;;;;;11.60;7.25;;;4.50;99.90;;;;;;5034003;28;20026;-94
2024/03/17 06:15:30;;;;;;;11.43;6.63;;;4.40;99.90;;;;;;5040131;28;20029;-93
2024/03/17 06:17:56;;;;;;;11.65;6.57;;;4.40;99.90;;;;;;5042984;28;20025;-95
2024/03/17 06:20:24;;;;;;;10.82;6.90;;;4.40;99.90;;;;;;5044810;28;20540;-94
2024/03/17 06:22:50;;;;;;;9.57;5.82;;;4.40;99.90;;;;;;5039667;28;20492;-92
2024/03/17 06:25:16;;;;;;;11.50;6.45;;;4.50;99.90;;;;;;5033854;28;20022;-94
2024/03/17 06:27:42;;;;;;;12.55;6.65;;;4.50;99.90;;;;;;5034823;28;20092;-94
2024/03/17 06:30:13;;;;;;;11.02;6.68;;;4.60;99.90;;;;;;5038964;28;20393;-94
2024/03/17 06:32:45;;;;;;;8.02;6.13;;;4.60;99.90;;;;;;5029369;28;20057;-94
2024/03/17 06:35:11;;;;;;;12.68;7.03;;;4.60;99.90;;;;;;5039465;28;20026;-94
2024/03/17 06:37:40;;;;;;;10.90;6.70;;;4.70;99.90;;;;;;5039015;28;20100;-93
2024/03/17 06:40:06;;;;;;;11.00;8.02;;;4.80;99.90;;;;;;5038912;28;20025;-93
2024/03/17 06:42:31;;;;;;;10.65;7.45;;;4.80;99.90;;;;;;5038507;28;20059;-93
2024/03/17 06:44:58;;;;;;;11.82;7.47;;;4.90;99.90;;;;;;5035608;28;20089;-94
2024/03/17 06:47:23;;;;;;;11.60;6.85;;;4.90;99.90;;;;;;5025311;28;20079;-92
2024/03/17 06:49:49;;;;;;;14.55;8.73;;;5.00;99.90;;;;;;5038483;28;20434;-94
2024/03/17 06:52:15;;;;;;;14.18;8.98;;;5.00;99.90;;;;;;5038128;28;20083;-93
2024/03/17 06:54:41;;;;;;;14.18;10.05;;;5.20;99.90;;;;;;5042218;28;20017;-94
2024/03/17 06:57:06;;;;;;;12.07;7.85;;;5.20;99.90;;;;;;5042612;28;20025;-91
2024/03/17 06:59:35;;;;;;;16.83;9.43;;;5.30;99.90;;;;;;5033784;28;20061;-93
2024/03/17 07:02:01;;;;;;;13.50;9.70;;;5.40;99.90;;;;;;5027040;28;20029;-92
2024/03/17 07:04:26;;;;;;;14.43;8.70;;;5.50;99.90;;;;;;5032605;28;20041;-93
2024/03/17 07:06:52;;;;;;;12.48;8.75;;;5.70;99.90;;;;;;5034065;28;20384;-93
2024/03/17 07:09:18;;;;;;;12.27;8.15;;;5.70;99.90;;;;;;5043105;28;20465;-94
2024/03/17 07:11:46;;;;;;;14.98;9.13;;;6.00;99.90;;;;;;5042506;28;20074;-94
2024/03/17 07:14:12;;;;;;;14.48;10.25;;;6.10;99.90;;;;;;5040726;28;20069;-94
2024/03/17 07:16:37;;;;;;;18.83;12.98;;;6.20;99.90;;;;;;5041977;28;20025;-93
2024/03/17 07:19:04;;;;;;;26.98;22.33;;;6.30;99.90;;;;;;5037777;28;20061;-94
2024/03/17 07:21:31;;;;;;;16.48;10.73;;;6.30;99.90;;;;;;5039841;28;20120;-94
2024/03/17 07:23:59;;;;;;;15.13;9.75;;;6.50;99.90;;;;;;5026830;28;20105;-93
2024/03/17 07:26:25;;;;;;;16.60;10.25;;;6.60;99.90;;;;;;5044073;28;20029;-91
2024/03/17 07:28:50;;;;;;;17.58;9.88;;;6.60;99.90;;;;;;5042631;28;20118;-94
2024/03/17 07:31:16;;;;;;;15.10;9.98;;;6.70;99.90;;;;;;5043723;28;20029;-94
2024/03/17 07:33:42;;;;;;;29.15;9.35;;;6.70;99.90;;;;;;5037052;28;20407;-93
2024/03/17 07:36:10;;;;;;;15.80;9.25;;;6.80;99.90;;;;;;5042304;28;20033;-92
2024/03/17 07:38:36;;;;;;;14.65;10.10;;;6.80;99.90;;;;;;5034370;28;20064;-93
2024/03/17 07:41:03;;;;;;;14.75;8.98;;;6.90;99.90;;;;;;5021403;28;20022;-94
2024/03/17 07:43:30;;;;;;;16.05;9.60;;;7.00;99.90;;;;;;5038279;28;20018;-92
2024/03/17 07:46:05;;;;;;;14.20;8.98;;;7.10;99.90;;;;;;5042017;28;20510;-93
2024/03/17 07:48:32;;;;;;;15.05;8.57;;;7.20;99.90;;;;;;5041708;28;20032;-94
2024/03/17 07:51:08;;;;;;;14.43;9.10;;;7.30;99.90;;;;;;5042662;28;20104;-91
2024/03/17 07:53:38;;;;;;;14.77;9.55;;;7.40;99.90;;;;;;5045837;28;20029;-94
2024/03/17 07:56:09;;;;;;;16.70;9.20;;;7.50;99.90;;;;;;5042283;28;20033;-93
2024/03/17 07:58:37;;;;;;;16.00;8.88;;;7.50;99.90;;;;;;5042328;28;20025;-94
2024/03/17 08:01:11;;;;;;;17.33;8.60;;;7.50;99.90;;;;;;5043042;28;20029;-93
2024/03/17 08:03:43;;;;;;;17.85;11.68;;;7.60;99.90;;;;;;5040207;28;20024;-94
2024/03/17 08:06:10;;;;;;;25.50;22.75;;;7.70;99.90;;;;;;5037635;28;20032;-93
2024/03/17 08:08:37;;;;;;;14.40;9.75;;;7.80;99.90;;;;;;5037457;28;20404;-94
2024/03/17 08:11:08;;;;;;;14.82;8.48;;;7.90;99.90;;;;;;5041538;28;20060;-93
2024/03/17 08:13:35;;;;;;;13.45;8.30;;;7.90;99.90;;;;;;5034804;28;20034;-93
2024/03/17 08:16:03;;;;;;;12.00;8.80;;;8.10;99.90;;;;;;5034019;28;20047;-93
2024/03/17 08:18:29;;;;;;;12.18;7.78;;;8.10;99.90;;;;;;5042680;28;20053;-94
2024/03/17 08:21:00;;;;;;;13.98;7.97;;;8.20;99.90;;;;;;5041004;28;20095;-93
2024/03/17 08:23:27;;;;;;;13.73;7.47;;;8.20;99.90;;;;;;5033149;28;20022;-93
2024/03/17 08:25:59;;;;;;;14.70;7.93;;;8.40;99.90;;;;;;5042355;28;20030;-93
2024/03/17 08:28:26;;;;;;;11.68;7.47;;;8.40;99.90;;;;;;5039761;28;20029;-93
2024/03/17 08:30:57;;;;;;;17.38;7.95;;;8.50;99.90;;;;;;5039401;28;20021;-94
2024/03/17 08:33:23;;;;;;;13.00;8.45;;;8.50;99.90;;;;;;5032153;28;20041;-92
2024/03/17 08:36:06;;;;;;;13.05;8.38;;;8.50;99.90;;;;;;5040737;28;20691;-93
2024/03/17 08:38:33;;;;;;;12.25;8.07;;;8.70;99.90;;;;;;5038151;28;20127;-93
2024/03/17 08:41:06;;;;;;;14.15;6.90;;;8.80;99.90;;;;;;5035129;28;20029;-95
2024/03/17 08:43:42;;;;;;;14.02;7.78;;;8.90;99.90;;;;;;5039869;28;20025;-91
2024/03/17 08:46:09;;;;;;;12.88;8.07;;;9.00;99.90;;;;;;5036384;28;20171;-93
2024/03/17 08:48:37;;;;;;;12.05;7.70;;;9.00;99.90;;;;;;5019601;28;20034;-93
2024/03/17 08:51:04;;;;;;;14.27;9.80;;;9.10;99.90;;;;;;5031339;28;20108;-93
2024/03/17 08:53:31;;;;;;;11.05;7.25;;;9.10;99.90;;;;;;5038865;28;20079;-93
2024/03/17 08:55:58;;;;;;;13.52;8.02;;;9.20;99.90;;;;;;5032181;28;20030;-94
2024/03/17 08:58:24;;;;;;;11.73;8.13;;;9.20;99.90;;;;;;5030196;28;20044;-92
2024/03/17 09:00:49;;;;;;;10.63;7.38;;;9.30;99.90;;;;;;5037999;28;20026;-93
2024/03/17 09:03:16;;;;;;;13.18;7.13;;;9.40;99.90;;;;;;5036604;28;20030;-94
2024/03/17 09:05:43;;;;;;;11.30;6.88;;;9.60;99.90;;;;;;5037814;28;20041;-92
2024/03/17 09:08:21;;;;;;;11.45;7.18;;;9.60;99.80;;;;;;5037542;28;20378;-93
2024/03/17 09:10:49;;;;;;;13.07;8.45;;;9.80;99.70;;;;;;5038668;28;20032;-92
2024/03/17 09:13:25;;;;;;;;;;;9.90;98.70;;;;;;5038541;28;20033;-93
2024/03/17 09:15:56;;;;;;;11.73;7.20;;;10.00;96.40;;;;;;5021220;28;19911;-93
2024/03/17 09:18:22;;;;;;;10.07;6.50;;;10.10;96.00;;;;;;5036900;28;20029;-93
2024/03/17 09:21:11;;;;;;;13.23;7.15;;;10.20;96.10;;;;;;5028503;28;20044;-93
2024/03/17 09:23:38;;;;;;;14.63;9.55;;;10.50;95.20;;;;;;5042536;28;20021;-94
2024/03/17 09:26:09;;;;;;;16.08;6.50;;;10.70;92.60;;;;;;5055191;28;20049;-93
2024/03/17 09:28:36;;;;;;;11.85;7.38;;;10.90;92.10;;;;;;5046279;28;20039;-93
2024/03/17 09:31:06;;;;;;;13.80;9.48;;;11.00;90.80;;;;;;5039616;28;20025;-93
2024/03/17 09:33:31;;;;;;;10.85;7.78;;;10.90;90.20;;;;;;5038267;28;20032;-93
2024/03/17 09:36:08;;;;;;;12.73;7.07;;;10.80;91.40;;;;;;5039482;28;20022;-93
2024/03/17 09:38:35;;;;;;;12.90;8.60;;;10.80;90.00;;;;;;5039704;28;20076;-92
2024/03/17 09:41:02;;;;;;;11.55;7.63;;;10.80;89.60;;;;;;5034025;28;20187;-94
2024/03/17 09:43:29;;;;;;;12.65;5.60;;;10.80;90.20;;;;;;5026840;28;20085;-94
2024/03/17 09:45:57;;;;;;;10.80;7.53;;;10.80;89.40;;;;;;5020721;28;20083;-94
2024/03/17 09:48:24;;;;;;;11.73;7.57;;;11.00;90.00;;;;;;5035200;28;20045;-92
2024/03/17 09:50:54;;;;;;;9.73;6.68;;;11.30;87.70;;;;;;5028407;28;20021;-93
2024/03/17 09:53:35;;;;;;;12.98;7.20;;;11.60;85.70;;;;;;5035080;28;20120;-93
2024/03/17 09:56:16;;;;;;;12.82;7.32;;;12.00;85.50;;;;;;5032350;28;20056;-93
2024/03/17 09:58:46;;;;;;;11.68;7.43;;;12.10;82.30;;;;;;5019210;28;20053;-95
2024/03/17 10:01:12;;;;;;;13.00;7.35;;;12.10;83.40;;;;;;5016411;28;20018;-92
2024/03/17 10:03:51;;;;;;;12.95;7.45;;;12.30;82.90;;;;;;5033041;28;20014;-94
2024/03/17 10:06:19;;;;;;;9.20;6.00;;;12.20;81.90;;;;;;5036826;28;20456;-94
2024/03/17 10:08:46;;;;;;;13.13;6.88;;;12.30;82.90;;;;;;5028073;28;20083;-93
2024/03/17 10:11:13;;;;;;;13.90;7.32;;;12.50;82.50;;;;;;5036358;28;20037;-94
2024/03/17 10:13:39;;;;;;;14.63;7.97;;;12.30;83.40;;;;;;5028125;28;20376;-92
2024/03/17 10:16:05;;;;;;;15.32;8.02;;;12.30;85.80;;;;;;5019005;28;20052;-93
2024/03/17 10:18:31;;;;;;;14.02;8.15;;;12.60;84.60;;;;;;5031212;28;20030;-93
2024/03/17 10:20:58;;;;;;;12.18;7.63;;;12.70;82.90;;;;;;5033541;28;20101;-91
2024/03/17 10:23:25;;;;;;;12.90;7.72;;;12.70;83.00;;;;;;5034761;28;20075;-92
2024/03/17 10:25:50;;;;;;;14.65;7.90;;;12.50;85.90;;;;;;5033753;28;20018;-93
2024/03/17 10:28:18;;;;;;;11.38;8.98;;;12.50;86.90;;;;;;5033821;28;20036;-91
2024/03/17 10:30:58;;;;;;;14.40;7.00;;;12.50;83.70;;;;;;5035347;28;20033;-92
2024/03/17 10:33:28;;;;;;;13.82;8.40;;;12.60;85.80;;;;;;5019754;28;20050;-91
2024/03/17 10:36:01;;;;;;;10.55;8.18;;;13.00;83.70;;;;;;5013153;28;20093;-92
2024/03/17 10:38:28;;;;;;;11.45;7.72;;;13.10;82.00;;;;;;5027040;28;20072;-93
2024/03/17 10:40:54;;;;;;;10.27;6.82;;;13.20;80.50;;;;;;5033440;28;20026;-92
2024/03/17 10:43:24;;;;;;;11.38;6.95;;;13.60;75.90;;;;;;5033730;28;20014;-92
2024/03/17 10:45:52;;;;;;;10.93;6.85;;;13.60;75.00;;;;;;5035526;28;20013;-92
2024/03/17 10:48:21;;;;;;;10.52;6.60;;;13.70;74.70;;;;;;5034297;28;20040;-91
2024/03/17 10:50:49;;;;;;;11.63;7.03;;;13.80;74.30;;;;;;5033951;28;20029;-91
2024/03/17 10:53:26;;;;;;;10.68;6.18;;;13.80;73.60;;;;;;5034905;28;20037;-94
2024/03/17 10:56:03;;;;;;;10.40;6.00;;;13.80;73.90;;;;;;5035494;28;20089;-95
2024/03/17 10:58:48;;;;;;;12.18;7.05;;;13.70;73.60;;;;;;5030214;28;20523;-93
2024/03/17 11:01:14;;;;;;;7.38;5.05;;;14.00;69.40;;;;;;5034580;28;20476;-93
2024/03/17 11:03:40;;;;;;;7.90;5.93;;;14.20;68.40;;;;;;5033746;28;20025;-94
2024/03/17 11:06:08;;;;;;;7.50;4.82;;;14.40;66.00;;;;;;5031324;28;20018;-93
2024/03/17 11:08:35;;;;;;;8.90;5.30;;;14.30;65.50;;;;;;5033237;28;20128;-95
2024/03/17 11:11:02;;;;;;;;;;;14.30;67.10;;;;;;5035145;28;20573;-95
2024/03/17 11:13:30;;;;;;;7.05;5.10;;;14.30;66.70;;;;;;5034335;28;20000;-94
2024/03/17 11:15:58;;;;;;;8.07;4.38;;;14.40;66.10;;;;;;5035271;28;20056;-94
2024/03/17 11:18:24;;;;;;;10.88;5.57;;;14.40;64.10;;;;;;5035934;28;20036;-91
2024/03/17 11:20:56;;;;;;;7.95;5.25;;;14.50;61.50;;;;;;5036040;28;20026;-93
2024/03/17 11:23:31;;;;;;;8.50;5.18;;;14.40;60.40;;;;;;5035276;28;20017;-94
2024/03/17 11:25:58;;;;;;;10.27;5.43;;;14.30;57.90;;;;;;5035766;28;20018;-93
2024/03/17 11:28:58;;;;;;;6.95;5.95;;;14.20;60.10;;;;;;5026963;28;20041;-94
2024/03/17 11:31:46;;;;;;;9.93;5.65;;;14.20;60.50;;;;;;5003094;28;20038;-92
2024/03/17 11:34:31;;;;;;;8.88;6.95;;;14.20;62.60;;;;;;5027991;28;20472;-93
2024/03/17 11:36:58;;;;;;;8.80;5.72;;;14.00;63.50;;;;;;5027841;28;20400;-94
2024/03/17 11:39:57;;;;;;;9.07;5.82;;;14.20;63.40;;;;;;5026448;28;20018;-93
2024/03/17 11:42:25;;;;;;;9.77;5.93;;;14.30;63.80;;;;;;5018052;28;20118;-94
2024/03/17 11:45:06;;;;;;;10.18;5.95;;;14.10;65.20;;;;;;5039000;28;20052;-93
2024/03/17 11:47:36;;;;;;;7.43;5.13;;;13.90;65.40;;;;;;5038930;28;20028;-93
2024/03/17 11:50:04;;;;;;;7.30;6.07;;;14.10;64.70;;;;;;5038725;28;20029;-93
2024/03/17 11:52:29;;;;;;;13.60;6.70;;;14.20;65.00;;;;;;5031192;28;20100;-94
2024/03/17 11:54:55;;;;;;;8.52;5.97;;;14.30;64.40;;;;;;5038989;28;20051;-93
2024/03/17 11:57:23;;;;;;;8.80;6.25;;;14.20;63.90;;;;;;5038621;28;20026;-93
2024/03/17 11:59:49;;;;;;;11.63;6.05;;;14.30;64.00;;;;;;5029579;28;20477;-94
2024/03/17 12:02:22;;;;;;;11.35;6.32;;;14.20;65.10;;;;;;5038074;28;20018;-95
2024/03/17 12:04:51;;;;;;;11.18;6.03;;;14.50;63.70;;;;;;5029551;28;20034;-93
2024/03/17 12:07:18;;;;;;;10.80;6.43;;;14.50;65.00;;;;;;5038737;28;20041;-93
2024/03/17 12:09:48;;;;;;;10.23;5.85;;;14.30;65.90;;;;;;5037841;28;20029;-94
2024/03/17 12:12:20;;;;;;;7.75;5.65;;;14.30;65.80;;;;;;5036382;28;20017;-95
2024/03/17 12:14:47;;;;;;;11.82;6.28;;;14.30;66.20;;;;;;5037746;28;20112;-93
2024/03/17 12:17:15;;;;;;;8.30;5.85;;;14.80;64.90;;;;;;5037133;28;20089;-94
2024/03/17 12:19:44;;;;;;;7.43;4.45;;;15.20;62.70;;;;;;5038611;28;20028;-94
2024/03/17 12:22:21;;;;;;;10.45;5.18;;;15.50;62.10;;;;;;5019877;28;20032;-94
2024/03/17 12:24:48;;;;;;;10.95;5.75;;;15.70;62.00;;;;;;5038216;28;20021;-95
2024/03/17 12:27:18;;;;;;;8.35;5.25;;;15.70;60.80;;;;;;5037924;28;20052;-94
2024/03/17 12:29:44;;;;;;;9.13;5.28;;;15.80;62.40;;;;;;5037840;28;20026;-94
2024/03/17 12:32:11;;;;;;;7.38;5.00;;;16.10;60.80;;;;;;5027695;28;20140;-94
2024/03/17 12:34:37;;;;;;;8.20;5.95;;;16.00;61.10;;;;;;5024036;28;20021;-94
2024/03/17 12:37:03;;;;;;;7.00;4.55;;;16.10;61.80;;;;;;5037344;28;20036;-93
2024/03/17 12:39:30;;;;;;;9.98;5.07;;;16.30;59.40;;;;;;5041353;28;20094;-95
2024/03/17 12:42:13;;;;;;;7.78;4.90;;;15.90;57.80;;;;;;5037523;28;20028;-92
2024/03/17 12:44:50;;;;;;;7.93;4.50;;;16.00;58.70;;;;;;5034949;28;20547;-95
2024/03/17 12:47:23;;;;;;;7.82;5.78;;;16.10;57.80;;;;;;5027032;28;20029;-92
2024/03/17 12:49:55;;;;;;;12.40;5.55;;;16.10;57.70;;;;;;5033452;28;20654;-94
2024/03/17 12:52:24;;;;;;;8.75;5.35;;;16.20;58.10;;;;;;5028766;28;20033;-93
2024/03/17 13:01:01;;;;;;;16.17;8.80;;;15.90;60.60;;;;;;5037539;28;20667;-94
2024/03/17 13:03:29;;;;;;;9.30;4.75;;;15.90;61.50;;;;;;5036878;28;20026;-92